Time;durP1;ratioP1;P1;durP2;ratioP2;P2;SDS_P1;SDS_P2;PMS_P1;PMS_P2;Temp;Humidity;BMP_temperature;BMP_pressure;BME280_temperature;BME280_humidity;BME280_pressure;Samples;Min_cycle;Max_cycle;Signal;HPM_P1;HPM_P2
2022/09/22 00:01:55;;;;;;;1.02;1.00;;;;;;;;;;6182499;23;20231;-84
2022/09/22 00:04:21;;;;;;;1.38;1.27;;;;;;;;;;6182854;23;20005;-83
2022/09/22 00:06:50;;;;;;;0.85;0.82;;;7.70;98.40;;;;;;6182312;23;20005;-83
2022/09/22 00:09:18;;;;;;;1.42;1.15;;;7.90;91.30;;;;;;6182529;23;20001;-83
2022/09/22 00:11:46;;;;;;;2.40;1.45;;;8.00;98.60;;;;;;6182643;23;20452;-83
2022/09/22 00:14:23;;;;;;;1.20;1.10;;;7.80;91.40;;;;;;6182069;23;20004;-84
2022/09/22 00:16:56;;;;;;;1.92;1.27;;;7.70;91.60;;;;;;6182718;23;20008;-83
2022/09/22 00:19:30;;;;;;;1.30;1.20;;;7.80;91.90;;;;;;6182585;23;20005;-84
2022/09/22 00:21:57;;;;;;;1.05;1.02;;;;;;;;;;6182142;23;20451;-83
2022/09/22 00:24:23;;;;;;;1.75;1.48;;;8.00;95.40;;;;;;6182458;23;20451;-83
2022/09/22 00:26:49;;;;;;;2.53;1.20;;;;;;;;;;6182759;23;20023;-84
2022/09/22 00:29:16;;;;;;;0.80;0.80;;;;;;;;;;6182382;23;20059;-83
2022/09/22 00:31:42;;;;;;;1.38;1.13;;;;;;;;;;6182539;23;20012;-83
2022/09/22 00:34:13;;;;;;;1.08;1.05;;;8.00;91.50;;;;;;6182473;23;20001;-84
2022/09/22 00:36:39;;;;;;;1.10;1.00;;;;;;;;;;6182415;23;20032;-83
2022/09/22 00:39:05;;;;;;;1.55;1.35;;;;;;;;;;6182635;23;20063;-83
2022/09/22 00:41:35;;;;;;;1.25;0.95;;;7.50;92.10;;;;;;6182380;23;20388;-83
2022/09/22 00:44:25;;;;;;;2.63;1.45;;;7.60;99.40;;;;;;6182211;23;20009;-84
2022/09/22 00:47:01;;;;;;;3.08;1.85;;;8.00;99.70;;;;;;6182405;23;20005;-83
2022/09/22 00:49:49;;;;;;;1.03;0.80;;;7.60;99.80;;;;;;6181511;23;20008;-83
2022/09/22 00:52:20;;;;;;;1.83;1.10;;;7.40;92.80;;;;;;6182439;23;20228;-83
2022/09/22 00:54:48;;;;;;;0.90;0.85;;;7.40;95.30;;;;;;6182518;23;20076;-84
2022/09/22 00:57:21;;;;;;;3.25;1.35;;;7.30;92.70;;;;;;6181957;23;20633;-84
2022/09/22 00:59:51;;;;;;;1.58;1.17;;;7.20;92.60;;;;;;6182056;23;20008;-84
2022/09/22 01:02:19;;;;;;;2.72;1.35;;;;;;;;;;6182264;23;20346;-84
2022/09/22 01:04:45;;;;;;;1.90;1.30;;;;;;;;;;6181742;23;20009;-84
2022/09/22 01:07:11;;;;;;;3.67;1.45;;;7.20;93.10;;;;;;6181316;23;20001;-83
2022/09/22 01:09:37;;;;;;;2.47;1.33;;;7.30;99.90;;;;;;6181912;23;20005;-83
2022/09/22 01:12:04;;;;;;;3.17;1.52;;;;;;;;;;6182156;23;20036;-83
2022/09/22 01:14:47;;;;;;;1.08;0.90;;;7.40;99.90;;;;;;6181538;23;20015;-84
2022/09/22 01:17:31;;;;;;;1.80;1.60;;;7.30;93.20;;;;;;6181993;23;20012;-84
2022/09/22 01:20:22;;;;;;;2.50;1.67;;;7.00;93.80;;;;;;6182642;23;20328;-84
2022/09/22 01:23:08;;;;;;;1.33;0.90;;;7.40;99.90;;;;;;6182246;23;20080;-84
2022/09/22 01:25:50;;;;;;;1.57;1.13;;;;;;;;;;6182067;23;20440;-83
2022/09/22 01:28:47;;;;;;;1.65;1.40;;;7.70;99.90;;;;;;6180323;23;20444;-84
2022/09/22 01:31:25;;;;;;;6.63;1.67;;;7.20;93.00;;;;;;6182066;23;20092;-83
2022/09/22 01:34:10;;;;;;;3.42;1.00;;;7.00;99.90;;;;;;6179662;23;20016;-84
2022/09/22 01:37:20;;;;;;;2.10;1.20;;;7.40;97.10;;;;;;6180510;23;20029;-84
2022/09/22 01:40:08;;;;;;;1.38;1.27;;;7.20;93.10;;;;;;6178608;23;20035;-83
2022/09/22 01:42:38;;;;;;;3.92;1.35;;;7.00;93.30;;;;;;6182163;23;20013;-84
2022/09/22 01:45:25;;;;;;;1.88;1.25;;;7.00;93.50;;;;;;6181538;23;20001;-84
2022/09/22 01:48:17;;;;;;;1.40;1.27;;;6.80;93.60;;;;;;6181523;23;20001;-84
2022/09/22 01:50:52;;;;;;;1.50;1.20;;;6.80;93.70;;;;;;6181866;23;20004;-84
2022/09/22 01:53:22;;;;;;;1.80;1.10;;;6.80;93.90;;;;;;6182272;23;20012;-84
2022/09/22 01:55:52;;;;;;;1.50;1.40;;;7.00;99.90;;;;;;6181974;23;20067;-83
2022/09/22 01:58:50;;;;;;;1.40;1.15;;;5.90;93.80;;;;;;6181946;23;20017;-84
2022/09/22 02:01:21;;;;;;;1.80;1.17;;;6.60;97.80;;;;;;6178595;23;20044;-84
2022/09/22 02:03:57;;;;;;;1.13;0.90;;;6.70;94.50;;;;;;6183996;23;20009;-84
2022/09/22 02:06:46;;;;;;;2.10;1.33;;;6.90;94.30;;;;;;6182213;23;20009;-84
2022/09/22 02:09:17;;;;;;;1.48;1.38;;;6.90;93.90;;;;;;6182836;23;20001;-84
2022/09/22 02:11:43;;;;;;;3.30;1.00;;;;;;;;;;6183939;23;20471;-84
2022/09/22 02:14:10;;;;;;;3.65;1.95;;;;;;;;;;6183308;23;20005;-86
2022/09/22 02:16:36;;;;;;;2.80;1.17;;;;;;;;;;6183544;23;20001;-84
2022/09/22 02:19:10;;;;;;;1.52;0.88;;;6.60;95.90;;;;;;6182065;23;20450;-84
2022/09/22 02:21:39;;;;;;;1.65;0.70;;;6.70;94.00;;;;;;6181896;23;20008;-83
2022/09/22 02:24:05;;;;;;;1.45;1.10;;;7.40;99.00;;;;;;6183741;23;20017;-84
2022/09/22 02:26:35;;;;;;;1.70;1.25;;;6.70;93.90;;;;;;6183968;23;20001;-84
2022/09/22 02:29:09;;;;;;;1.20;1.10;;;6.40;99.90;;;;;;6183664;23;20012;-84
2022/09/22 02:31:37;;;;;;;1.05;0.95;;;6.70;99.90;;;;;;6183092;23;20186;-83
2022/09/22 02:34:04;;;;;;;1.13;1.00;;;6.50;94.30;;;;;;6183950;23;20053;-84
2022/09/22 02:36:30;;;;;;;1.05;0.98;;;;;;;;;;6183601;23;20011;-84
2022/09/22 02:39:08;;;;;;;1.20;1.08;;;6.40;99.90;;;;;;6183880;23;20076;-84
2022/09/22 02:42:09;;;;;;;1.95;1.30;;;6.50;94.50;;;;;;6183269;23;20005;-83
2022/09/22 02:44:53;;;;;;;2.13;1.60;;;7.10;98.50;;;;;;6165600;23;20428;-84
2022/09/22 02:47:27;;;;;;;1.67;1.02;;;6.30;99.90;;;;;;6183481;23;20012;-84
2022/09/22 02:49:54;;;;;;;2.65;1.20;;;;;;;;;;6183343;23;20008;-84
2022/09/22 02:52:23;;;;;;;2.15;1.42;;;6.40;94.50;;;;;;6183516;23;20004;-84
2022/09/22 02:54:51;;;;;;;8.30;1.40;;;6.30;94.70;;;;;;6181886;23;20399;-83
2022/09/22 02:57:17;;;;;;;1.52;0.90;;;;;;;;;;6183543;23;20121;-83
2022/09/22 02:59:43;;;;;;;1.45;1.20;;;;;;;;;;6183285;23;20017;-83
2022/09/22 03:02:09;;;;;;;1.17;0.93;;;;;;;;;;6183513;23;20013;-84
2022/09/22 03:04:35;;;;;;;1.30;1.20;;;;;;;;;;6183625;23;20013;-84
2022/09/22 03:07:01;;;;;;;1.02;0.88;;;;;;;;;;6183642;23;20322;-84
2022/09/22 03:09:27;;;;;;;1.42;1.33;;;6.80;97.10;;;;;;6183302;23;20009;-84
2022/09/22 03:11:53;;;;;;;1.52;1.17;;;;;;;;;;6183272;23;20005;-84
2022/09/22 03:14:19;;;;;;;1.35;1.08;;;;;;;;;;6182251;23;20005;-84
2022/09/22 03:16:44;;;;;;;2.60;1.10;;;6.10;99.90;;;;;;6183037;23;20025;-84
2022/09/22 03:19:10;;;;;;;1.33;1.00;;;;;;;;;;6183233;23;20321;-85
2022/09/22 03:21:37;;;;;;;1.40;1.30;;;;;;;;;;6183442;23;20012;-84
2022/09/22 03:24:03;;;;;;;6.50;1.40;;;5.80;95.60;;;;;;6183167;23;20013;-84
2022/09/22 03:26:29;;;;;;;8.25;1.52;;;;;;;;;;6183315;23;20081;-84
2022/09/22 03:28:55;;;;;;;0.85;0.77;;;;;;;;;;6182522;23;20028;-84
2022/09/22 03:31:21;;;;;;;2.88;1.55;;;;;;;;;;6183142;23;20077;-84
2022/09/22 03:33:46;;;;;;;0.70;0.70;;;;;;;;;;6183356;23;20025;-84
2022/09/22 03:36:13;;;;;;;0.93;0.90;;;;;;;;;;6181289;23;20064;-84
2022/09/22 03:38:39;;;;;;;1.38;1.27;;;;;;;;;;6183219;23;20008;-84
2022/09/22 03:41:05;;;;;;;1.15;0.90;;;6.20;98.00;;;;;;6182682;23;20032;-84
2022/09/22 03:43:30;;;;;;;1.33;1.15;;;6.30;97.90;;;;;;6182402;23;20036;-84
2022/09/22 03:46:00;;;;;;;0.95;0.90;;;6.00;95.30;;;;;;6182747;23;20012;-84
2022/09/22 03:48:27;;;;;;;1.88;1.35;;;6.00;95.30;;;;;;6182745;23;20468;-84
2022/09/22 03:50:56;;;;;;;0.77;0.77;;;6.00;95.50;;;;;;6183013;23;20007;-84
2022/09/22 03:53:22;;;;;;;1.92;1.00;;;6.10;99.90;;;;;;6182960;23;20451;-84
2022/09/22 03:55:48;;;;;;;1.48;1.17;;;;;;;;;;6181141;23;20012;-85
2022/09/22 03:58:15;;;;;;;1.95;1.40;;;;;;;;;;6182261;23;20064;-84
2022/09/22 04:00:40;;;;;;;1.15;1.08;;;5.70;99.90;;;;;;6182811;23;20001;-84
2022/09/22 04:03:06;;;;;;;1.30;1.20;;;;;;;;;;6182740;23;20326;-84
2022/09/22 04:05:32;;;;;;;1.52;1.10;;;;;;;;;;6182658;23;20008;-84
2022/09/22 04:07:58;;;;;;;3.08;1.23;;;;;;;;;;6182957;23;20101;-84
2022/09/22 04:10:25;;;;;;;2.65;1.98;;;;;;;;;;6180864;23;20007;-83
2022/09/22 04:12:50;;;;;;;2.08;1.45;;;5.60;99.90;;;;;;6182507;23;20002;-84
2022/09/22 04:15:16;;;;;;;2.05;1.35;;;5.70;95.70;;;;;;6182222;23;20004;-84
2022/09/22 04:17:44;;;;;;;1.58;0.90;;;5.60;99.10;;;;;;6181003;23;20025;-84
2022/09/22 04:20:10;;;;;;;;;;;5.70;95.90;;;;;;6182833;23;20012;-83
2022/09/22 04:22:37;;;;;;;1.33;1.00;;;5.60;99.90;;;;;;6182653;23;19916;-84
2022/09/22 04:25:03;;;;;;;1.38;1.27;;;5.70;96.00;;;;;;6182591;23;20072;-83
2022/09/22 04:27:29;;;;;;;1.20;0.98;;;;;;;;;;6182241;23;20012;-85
2022/09/22 04:29:56;;;;;;;1.10;1.00;;;5.60;99.90;;;;;;6182338;23;20483;-84
2022/09/22 04:32:22;;;;;;;1.45;0.98;;;5.80;99.90;;;;;;6182478;23;20059;-84
2022/09/22 04:34:48;;;;;;;2.55;1.40;;;;;;;;;;6182581;23;20001;-84
2022/09/22 04:37:14;;;;;;;1.38;1.27;;;;;;;;;;6182669;23;20052;-84
2022/09/22 04:39:39;;;;;;;7.47;1.08;;;6.00;99.90;;;;;;6182846;23;20001;-85
2022/09/22 04:42:07;;;;;;;4.05;1.15;;;5.90;99.90;;;;;;6182525;23;20009;-84
2022/09/22 04:44:33;;;;;;;3.78;1.75;;;;;;;;;;6182052;23;20009;-85
2022/09/22 04:46:59;;;;;;;2.50;1.20;;;;;;;;;;6182348;23;20388;-84
2022/09/22 04:49:25;;;;;;;1.35;1.25;;;;;;;;;;6182338;23;20008;-85
2022/09/22 04:51:51;;;;;;;1.25;1.05;;;6.30;99.90;;;;;;6182370;23;20008;-84
2022/09/22 04:54:17;;;;;;;3.42;1.65;;;6.30;99.90;;;;;;6180852;23;20009;-84
2022/09/22 04:56:43;;;;;;;1.42;1.27;;;;;;;;;;6181708;23;20179;-85
2022/09/22 04:59:09;;;;;;;2.15;1.20;;;6.00;99.90;;;;;;6182379;23;20109;-84
2022/09/22 05:01:35;;;;;;;1.60;1.20;;;5.80;99.90;;;;;;6182420;23;20037;-84
2022/09/22 05:04:00;;;;;;;3.10;1.85;;;5.60;99.20;;;;;;6180221;23;20364;-84
2022/09/22 05:06:26;;;;;;;3.70;1.48;;;;;;;;;;6180513;23;20001;-85
2022/09/22 05:08:52;;;;;;;4.15;1.40;;;;;;;;;;6181782;23;20005;-85
2022/09/22 05:11:20;;;;;;;1.58;1.38;;;;;;;;;;6181856;23;20433;-84
2022/09/22 05:13:46;;;;;;;2.78;1.60;;;;;;;;;;6181963;23;20001;-84
2022/09/22 05:16:12;;;;;;;1.75;1.60;;;;;;;;;;6181604;23;20012;-84
2022/09/22 05:18:38;;;;;;;3.40;1.65;;;;;;;;;;6182038;23;20006;-85
2022/09/22 05:21:06;;;;;;;2.10;1.90;;;5.40;99.60;;;;;;6181890;23;20004;-84
2022/09/22 05:23:31;;;;;;;3.22;1.65;;;5.30;99.90;;;;;;6179981;23;20427;-85
2022/09/22 05:25:57;;;;;;;6.10;1.40;;;;;;;;;;6181788;23;20001;-85
2022/09/22 05:28:23;;;;;;;1.70;1.60;;;;;;;;;;6179376;23;20016;-84
2022/09/22 05:30:50;;;;;;;2.25;1.63;;;;;;;;;;6179261;23;20341;-84
2022/09/22 05:33:16;;;;;;;4.15;2.28;;;;;;;;;;6179665;23;20051;-85
2022/09/22 05:35:41;;;;;;;1.50;1.40;;;5.90;99.90;;;;;;6179320;23;20004;-84
2022/09/22 05:38:07;;;;;;;1.52;1.38;;;5.50;99.90;;;;;;6177264;23;20331;-84
2022/09/22 05:40:33;;;;;;;2.03;1.77;;;;;;;;;;6176474;23;20403;-84
2022/09/22 05:42:59;;;;;;;2.22;2.00;;;;;;;;;;6178821;23;20013;-83
2022/09/22 05:45:25;;;;;;;2.78;2.30;;;;;;;;;;6177223;23;20029;-84
2022/09/22 05:47:52;;;;;;;2.95;1.90;;;;;;;;;;6179550;23;20503;-84
2022/09/22 05:50:19;;;;;;;3.42;2.17;;;5.70;95.60;;;;;;6179699;23;20005;-84
2022/09/22 05:52:45;;;;;;;2.10;1.85;;;;;;;;;;6179324;23;19997;-84
2022/09/22 05:55:11;;;;;;;5.05;1.90;;;5.80;95.60;;;;;;6179806;23;20016;-83
2022/09/22 05:57:37;;;;;;;1.52;1.42;;;;;;;;;;6178961;23;20023;-83
2022/09/22 06:00:05;;;;;;;3.53;2.05;;;5.80;95.40;;;;;;6178629;23;20009;-85
2022/09/22 06:02:31;;;;;;;3.47;2.17;;;;;;;;;;6180555;23;20009;-82
2022/09/22 06:04:57;;;;;;;8.98;2.65;;;;;;;;;;6154519;23;20076;-84
2022/09/22 06:07:23;;;;;;;2.17;1.67;;;;;;;;;;6150011;23;20439;-84
2022/09/22 06:09:49;;;;;;;3.38;1.60;;;;;;;;;;6149851;23;20021;-85
2022/09/22 06:12:16;;;;;;;1.52;1.42;;;6.30;99.90;;;;;;6150328;23;20392;-84
2022/09/22 06:14:42;;;;;;;2.67;1.45;;;;;;;;;;6149849;23;19998;-85
2022/09/22 06:17:11;;;;;;;2.08;1.88;;;;;;;;;;6149974;23;20005;-85
2022/09/22 06:19:37;;;;;;;2.33;2.17;;;13.30;93.90;;;;;;6151053;23;20002;-85
2022/09/22 06:22:03;;;;;;;3.10;2.80;;;;;;;;;;6150041;23;20471;-85
2022/09/22 06:24:29;;;;;;;4.60;2.70;;;18.90;60.90;;;;;;6150301;23;20012;-85
2022/09/22 06:26:55;;;;;;;8.43;2.47;;;;;;;;;;6149988;23;20001;-85
2022/09/22 06:29:20;;;;;;;2.95;2.63;;;21.00;55.20;;;;;;6149787;23;20002;-85
2022/09/22 06:31:47;;;;;;;3.25;2.30;;;;;;;;;;6149954;23;20036;-85
2022/09/22 06:34:13;;;;;;;2.22;2.03;;;;;;;;;;6149443;23;20032;-85
2022/09/22 06:36:44;;;;;;;2.50;2.13;;;27.00;52.60;;;;;;6148991;23;20615;-85
2022/09/22 06:39:10;;;;;;;3.15;2.50;;;;;;;;;;6149756;23;20617;-86
2022/09/22 06:41:36;;;;;;;4.60;3.40;;;;;;;;;;6147769;23;20322;-86
2022/09/22 06:44:04;;;;;;;5.03;3.85;;;31.40;36.90;;;;;;6148782;23;20322;-87
2022/09/22 06:46:32;;;;;;;6.20;3.10;;;28.90;44.90;;;;;;6131594;23;20006;-87
2022/09/22 06:48:59;;;;;;;3.50;2.22;;;26.50;38.80;;;;;;6148805;23;20016;-84
2022/09/22 06:51:29;;;;;;;4.15;2.85;;;25.90;40.80;;;;;;6150281;23;19997;-82
2022/09/22 06:53:55;;;;;;;4.57;2.42;;;28.50;48.10;;;;;;6149713;23;20006;-82
2022/09/22 06:56:25;;;;;;;4.13;2.47;;;31.20;36.60;;;;;;6144112;23;20144;-82
2022/09/22 06:58:55;;;;;;;5.03;2.50;;;33.50;40.90;;;;;;6149982;23;20080;-87
2022/09/22 07:01:22;;;;;;;4.15;2.03;;;35.60;38.20;;;;;;6152331;23;20449;-86
2022/09/22 07:03:49;;;;;;;3.47;1.98;;;37.40;30.80;;;;;;6149907;23;20084;-88
2022/09/22 07:06:17;;;;;;;1.60;1.50;;;;;;;;;;6146991;23;20479;-88
2022/09/22 07:08:43;;;;;;;2.15;1.55;;;;;;;;;;6148621;23;20037;-86
2022/09/22 07:11:09;;;;;;;8.82;2.25;;;41.40;29.00;;;;;;6150108;23;20060;-88
2022/09/22 07:13:37;;;;;;;2.80;1.52;;;42.40;31.50;;;;;;6149361;23;20037;-88
2022/09/22 07:16:08;;;;;;;2.15;1.55;;;42.30;30.30;;;;;;6143089;23;20016;-90
2022/09/22 07:18:39;;;;;;;1.60;1.50;;;43.90;30.10;;;;;;6150322;23;20102;-84
2022/09/22 07:21:07;;;;;;;1.30;1.17;;;44.00;26.30;;;;;;6148207;23;20002;-83
2022/09/22 07:23:35;;;;;;;1.02;0.90;;;45.30;29.20;;;;;;6123603;23;20020;-89
2022/09/22 07:26:05;;;;;;;2.28;1.25;;;45.90;28.20;;;;;;6144071;23;20006;-90
2022/09/22 07:28:33;;;;;;;1.23;1.08;;;46.90;27.80;;;;;;6149956;23;20009;-92
2022/09/22 07:31:10;;;;;;;1.50;1.30;;;46.90;26.80;;;;;;6152637;23;20036;-90
2022/09/22 07:33:37;;;;;;;3.28;1.50;;;47.50;27.00;;;;;;6151775;23;20076;-90
2022/09/22 07:36:12;;;;;;;2.50;1.40;;;47.10;26.90;;;;;;6143776;23;20006;-92
2022/09/22 07:38:38;;;;;;;;;;;47.20;23.70;;;;;;6152573;23;20013;-93
2022/09/22 07:41:07;;;;;;;2.65;1.38;;;47.80;27.00;;;;;;6153002;23;19951;-92
2022/09/22 07:43:33;;;;;;;4.05;2.13;;;48.20;26.90;;;;;;6152646;23;20002;-92
2022/09/22 07:45:59;;;;;;;2.88;1.80;;;48.20;26.20;;;;;;6145234;23;20009;-92
2022/09/22 07:48:36;;;;;;;4.15;1.48;;;48.80;26.10;;;;;;6151062;23;20345;-88
2022/09/22 07:51:03;;;;;;;1.73;1.27;;;49.50;22.50;;;;;;6150837;23;20033;-90
2022/09/22 07:53:30;;;;;;;1.95;1.75;;;49.60;25.50;;;;;;6151671;23;20024;-90
2022/09/22 07:56:05;;;;;;;1.95;1.40;;;49.50;25.00;;;;;;6116320;23;20364;-88
2022/09/22 07:58:31;;;;;;;3.50;1.40;;;49.60;25.00;;;;;;6151882;23;20488;-90
2022/09/22 08:00:57;;;;;;;5.53;1.60;;;50.00;25.30;;;;;;6163107;23;20016;-90
2022/09/22 08:03:23;;;;;;;1.67;1.27;;;50.10;24.20;;;;;;6159768;23;20017;-88
2022/09/22 08:05:51;;;;;;;2.35;1.10;;;;;;;;;;6143225;23;20547;-92
2022/09/22 08:08:16;;;;;;;1.60;1.13;;;51.00;24.10;;;;;;6149509;23;20368;-88
2022/09/22 08:10:42;;;;;;;1.45;1.02;;;;;;;;;;6148430;23;20060;-92
2022/09/22 08:13:08;;;;;;;2.28;1.20;;;51.70;24.60;;;;;;6151013;23;20009;-89
2022/09/22 08:15:35;;;;;;;2.03;1.08;;;;;;;;;;6143982;23;20005;-91
2022/09/22 08:18:02;;;;;;;2.58;1.30;;;51.80;23.80;;;;;;6149424;23;20013;-89
2022/09/22 08:20:28;;;;;;;2.53;1.13;;;52.40;23.90;;;;;;6147664;23;20009;-87
2022/09/22 08:22:57;;;;;;;3.63;1.10;;;53.00;23.00;;;;;;6148312;23;20056;-88
2022/09/22 08:25:24;;;;;;;1.67;0.82;;;52.40;20.50;;;;;;6147057;23;20037;-88
2022/09/22 08:27:50;;;;;;;2.42;0.82;;;52.80;23.80;;;;;;6119409;23;20015;-87
2022/09/22 08:30:18;;;;;;;1.10;1.05;;;52.50;23.80;;;;;;6147294;23;20020;-87
2022/09/22 08:32:45;;;;;;;2.97;1.10;;;;;;;;;;6148785;23;20068;-88
2022/09/22 08:35:11;;;;;;;1.58;1.10;;;;;;;;;;6148591;23;20072;-88
2022/09/22 08:37:37;;;;;;;2.05;1.30;;;;;;;;;;6139250;23;20508;-88
2022/09/22 08:40:05;;;;;;;3.85;1.58;;;52.80;23.30;;;;;;6148838;23;20479;-86
2022/09/22 08:42:32;;;;;;;2.33;1.17;;;53.70;23.60;;;;;;6148338;23;20704;-88
2022/09/22 08:45:11;;;;;;;1.48;1.20;;;51.90;23.10;;;;;;6147593;23;20177;-87
2022/09/22 08:53:45;;;;;;;1.85;0.98;;;52.50;23.50;;;;;;6148470;23;20024;-90
2022/09/22 08:56:29;;;;;;;2.33;1.00;;;51.80;23.10;;;;;;6141677;23;20024;-92
2022/09/22 08:58:59;;;;;;;;;;;52.00;20.30;;;;;;6148992;23;20461;-84
2022/09/22 09:01:50;;;;;;;1.35;1.00;;;52.20;23.40;;;;;;6148311;23;19901;-84
2022/09/22 09:05:09;;;;;;;1.10;1.00;;;52.90;23.60;;;;;;6147806;23;20077;-84
2022/09/22 09:08:14;;;;;;;2.85;0.95;;;52.80;22.40;;;;;;6048442;23;20055;-90
2022/09/22 09:10:51;;;;;;;3.90;0.80;;;52.80;21.30;;;;;;6056372;23;20089;-91
2022/09/22 09:13:29;;;;;;;4.05;0.88;;;52.50;23.60;;;;;;6058588;23;20022;-89
2022/09/22 09:16:18;;;;;;;1.40;0.90;;;51.90;23.30;;;;;;6048448;23;20070;-90
2022/09/22 09:18:49;;;;;;;1.25;0.98;;;52.20;23.50;;;;;;6058201;23;20070;-91
2022/09/22 09:21:15;;;;;;;1.23;1.00;;;51.70;21.90;;;;;;6058629;23;20277;-86
2022/09/22 09:23:54;;;;;;;1.75;0.93;;;50.80;23.10;;;;;;6057705;23;20454;-84
2022/09/22 09:26:22;;;;;;;2.03;0.80;;;;;;;;;;6050139;23;20010;-87
2022/09/22 09:28:54;;;;;;;2.08;0.93;;;51.20;20.00;;;;;;6057768;23;20086;-85
2022/09/22 09:31:26;;;;;;;3.15;1.13;;;51.00;19.80;;;;;;6056750;23;20043;-84
2022/09/22 09:33:57;;;;;;;1.95;0.73;;;50.40;21.00;;;;;;6058276;23;20025;-84
2022/09/22 09:36:30;;;;;;;0.80;0.73;;;49.70;23.20;;;;;;6048876;23;20014;-83
2022/09/22 09:38:57;;;;;;;2.40;0.77;;;49.30;20.80;;;;;;6058381;23;20111;-83
2022/09/22 09:41:30;;;;;;;1.23;0.50;;;49.40;20.40;;;;;;6107448;23;20029;-83
2022/09/22 09:43:56;;;;;;;1.38;0.50;;;;;;;;;;6147908;23;20095;-83
2022/09/22 09:46:43;;;;;;;1.27;0.50;;;50.40;19.80;;;;;;6138531;23;20009;-85
2022/09/22 09:49:13;;;;;;;1.10;0.65;;;49.20;23.10;;;;;;6148449;23;20471;-82
2022/09/22 09:51:46;;;;;;;0.95;0.52;;;47.90;20.20;;;;;;6148095;23;19997;-83
2022/09/22 09:54:15;;;;;;;1.02;0.55;;;48.00;20.40;;;;;;6148672;23;20010;-86
2022/09/22 09:57:13;;;;;;;1.05;0.45;;;48.30;23.80;;;;;;6141139;23;20348;-86
2022/09/22 10:02:55;;;;;;;1.05;0.52;;;49.20;20.30;;;;;;6143352;23;20607;-81
2022/09/22 10:05:25;;;;;;;1.85;0.60;;;46.30;18.90;;;;;;6147087;23;20002;-83
2022/09/22 10:07:57;;;;;;;2.00;0.60;;;49.50;24.20;;;;;;6142134;23;20009;-83
2022/09/22 10:10:28;;;;;;;0.88;0.50;;;49.50;24.20;;;;;;6148655;23;20025;-92
2022/09/22 10:13:34;;;;;;;1.92;0.68;;;49.50;20.10;;;;;;6149289;23;20017;-81
2022/09/22 10:16:00;;;;;;;1.15;0.70;;;;;;;;;;6138829;23;20005;-85
2022/09/22 10:18:38;;;;;;;3.83;0.70;;;49.10;20.40;;;;;;6147681;23;20102;-84
2022/09/22 10:21:23;;;;;;;0.60;0.40;;;48.30;24.10;;;;;;6148330;23;20006;-93
2022/09/22 10:23:51;;;;;;;1.17;0.40;;;48.50;20.30;;;;;;6150273;23;20404;-80
2022/09/22 10:26:25;;;;;;;2.58;0.63;;;48.40;24.00;;;;;;6143080;23;20006;-81
2022/09/22 10:29:18;;;;;;;1.25;0.57;;;49.40;24.30;;;;;;6149089;23;19998;-81
2022/09/22 10:32:01;;;;;;;5.75;0.77;;;49.20;20.20;;;;;;6149139;23;20552;-81
2022/09/22 10:34:35;;;;;;;3.22;0.60;;;48.50;24.00;;;;;;6124953;23;20017;-80
2022/09/22 10:37:07;;;;;;;1.00;0.43;;;48.50;24.10;;;;;;6141547;23;20576;-80
2022/09/22 10:39:45;;;;;;;0.90;0.40;;;49.20;20.30;;;;;;6150086;23;20059;-80
2022/09/22 10:42:22;;;;;;;1.20;0.50;;;48.60;24.00;;;;;;6149324;23;20005;-91
2022/09/22 10:44:48;;;;;;;0.82;0.60;;;;;;;;;;6151253;23;20005;-86
2022/09/22 10:47:54;;;;;;;0.82;0.55;;;48.70;20.30;;;;;;6141293;23;20019;-85
2022/09/22 10:50:30;;;;;;;1.27;0.45;;;48.30;20.10;;;;;;6149183;23;20005;-86
2022/09/22 10:53:04;;;;;;;0.68;0.38;;;48.30;20.10;;;;;;6148839;23;20018;-85
2022/09/22 10:56:13;;;;;;;0.40;0.32;;;47.70;20.00;;;;;;6145871;23;20001;-86
2022/09/22 10:58:54;;;;;;;0.80;0.32;;;47.50;21.20;;;;;;6057620;23;20027;-84
2022/09/22 11:01:47;;;;;;;1.25;0.50;;;46.20;20.30;;;;;;6059193;23;20099;-79
2022/09/22 11:04:31;;;;;;;1.05;0.35;;;46.30;20.30;;;;;;6059649;23;20030;-78
2022/09/22 11:13:17;;;;;;;0.40;0.30;;;45.10;26.80;;;;;;6029988;23;20063;-88
2022/09/22 11:16:12;;;;;;;1.92;0.47;;;44.90;20.60;;;;;;5940988;24;20085;-92
2022/09/22 11:18:40;;;;;;;1.77;0.60;;;44.50;20.80;;;;;;5953753;24;20016;-92
2022/09/22 11:21:15;;;;;;;0.82;0.40;;;43.80;21.40;;;;;;5934331;24;20017;-91
2022/09/22 11:23:53;;;;;;;1.08;0.60;;;42.20;28.60;;;;;;5947036;24;20012;-90
2022/09/22 11:26:59;;;;;;;2.00;0.45;;;40.50;21.90;;;;;;5940866;24;20013;-86
2022/09/22 11:29:44;;;;;;;2.60;0.40;;;38.60;30.00;;;;;;5933663;24;20009;-88
2022/09/22 11:32:10;;;;;;;1.42;0.60;;;;;;;;;;5976581;24;20037;-91
2022/09/22 11:35:37;;;;;;;1.05;0.60;;;35.60;31.30;;;;;;5952797;24;20012;-90
2022/09/22 11:38:26;;;;;;;3.40;0.88;;;34.40;26.30;;;;;;5971368;24;20348;-79
2022/09/22 11:41:16;;;;;;;2.63;0.70;;;33.60;26.70;;;;;;5973867;24;20083;-79
2022/09/22 11:44:05;;;;;;;1.95;0.75;;;32.80;25.10;;;;;;5972879;24;20084;-87
2022/09/22 11:46:56;;;;;;;4.25;0.65;;;32.50;34.10;;;;;;5958836;24;20032;-90
2022/09/22 11:49:33;;;;;;;1.05;0.60;;;31.20;26.10;;;;;;5944535;24;20095;-79
2022/09/22 11:52:16;;;;;;;1.35;0.60;;;31.20;30.00;;;;;;5957143;23;20077;-79
2022/09/22 11:54:56;;;;;;;0.85;0.55;;;31.10;26.10;;;;;;6029856;23;20015;-89
2022/09/22 11:57:26;;;;;;;2.28;1.05;;;30.90;30.30;;;;;;6020845;23;20566;-86
2022/09/22 12:00:04;;;;;;;2.97;0.70;;;30.20;26.80;;;;;;6029733;23;20008;-89
2022/09/22 12:02:53;;;;;;;1.38;0.60;;;30.20;29.50;;;;;;6043257;23;20037;-88
2022/09/22 12:05:20;;;;;;;3.47;0.70;;;;;;;;;;6116090;23;20081;-90
2022/09/22 12:07:58;;;;;;;1.65;0.63;;;29.40;27.60;;;;;;6113157;23;20010;-88
2022/09/22 12:10:40;;;;;;;1.17;0.60;;;29.10;28.30;;;;;;6149793;23;20002;-88
2022/09/22 12:13:25;;;;;;;6.25;0.65;;;29.00;37.90;;;;;;6149769;23;20089;-88
2022/09/22 12:16:02;;;;;;;1.17;0.80;;;28.90;28.20;;;;;;6143542;23;20013;-79
2022/09/22 12:18:49;;;;;;;0.95;0.80;;;28.70;28.20;;;;;;6148956;23;20063;-80
2022/09/22 12:21:53;;;;;;;1.85;0.88;;;28.60;39.30;;;;;;6149055;23;20066;-80
2022/09/22 12:24:19;;;;;;;0.88;0.77;;;;;;;;;;6149494;23;20510;-86
2022/09/22 12:26:47;;;;;;;0.70;0.50;;;28.50;28.30;;;;;;6141911;23;20464;-87
2022/09/22 12:29:22;;;;;;;2.15;0.60;;;28.50;39.60;;;;;;6148121;23;20008;-84
2022/09/22 12:31:50;;;;;;;0.95;0.85;;;27.90;40.00;;;;;;6150444;23;20006;-92
2022/09/22 12:34:24;;;;;;;2.35;1.23;;;27.50;28.90;;;;;;6150789;23;20785;-88
2022/09/22 12:37:12;;;;;;;0.73;0.60;;;27.20;29.00;;;;;;6142670;23;20001;-87
2022/09/22 12:39:47;;;;;;;1.73;0.70;;;26.80;29.90;;;;;;6147999;23;20025;-91
2022/09/22 12:42:21;;;;;;;2.10;0.77;;;26.50;32.20;;;;;;6151096;23;20060;-87
2022/09/22 12:44:57;;;;;;;0.82;0.73;;;26.40;30.40;;;;;;6148398;23;20079;-89
2022/09/22 12:47:38;;;;;;;1.23;1.13;;;25.90;35.80;;;;;;6141747;23;20048;-84
2022/09/22 12:50:26;;;;;;;0.85;0.60;;;25.80;43.00;;;;;;6151189;23;20017;-90
2022/09/22 12:52:52;;;;;;;2.00;1.00;;;25.30;43.50;;;;;;6153870;23;20017;-91
2022/09/22 12:55:29;;;;;;;3.47;1.15;;;25.40;31.70;;;;;;6151960;23;20085;-92
2022/09/22 12:58:00;;;;;;;1.33;0.98;;;25.40;43.90;;;;;;6151795;23;20017;-91
2022/09/22 13:00:35;;;;;;;1.60;0.80;;;25.20;32.40;;;;;;6161591;23;20036;-84
2022/09/22 13:03:23;;;;;;;0.40;0.40;;;25.30;44.60;;;;;;6150356;23;20012;-78
2022/09/22 13:05:52;;;;;;;1.50;1.08;;;25.10;33.00;;;;;;6144523;23;20009;-89
2022/09/22 13:08:38;;;;;;;3.13;0.85;;;24.80;45.40;;;;;;6147009;23;20432;-87
2022/09/22 13:11:06;;;;;;;1.00;0.80;;;24.90;45.20;;;;;;6058368;23;20522;-88
2022/09/22 13:13:35;;;;;;;3.08;0.95;;;;;;;;;;6059896;23;20050;-86
2022/09/22 13:16:13;;;;;;;2.60;0.90;;;25.10;39.10;;;;;;6048656;23;20070;-85
2022/09/22 13:18:39;;;;;;;3.00;0.90;;;;;;;;;;6059615;23;20011;-80
2022/09/22 13:21:10;;;;;;;0.75;0.75;;;25.20;45.20;;;;;;6056846;23;20062;-77
2022/09/22 13:23:37;;;;;;;2.10;0.65;;;;;;;;;;6058162;23;20103;-78
2022/09/22 13:26:10;;;;;;;1.50;0.80;;;25.10;33.00;;;;;;6049322;23;20434;-83
2022/09/22 13:28:36;;;;;;;0.93;0.63;;;25.10;39.60;;;;;;6058207;23;20178;-80
2022/09/22 13:31:08;;;;;;;1.15;0.80;;;25.00;33.50;;;;;;6056927;23;20442;-80
2022/09/22 13:33:35;;;;;;;1.60;1.00;;;25.20;33.50;;;;;;6057472;23;20490;-80
2022/09/22 13:36:01;;;;;;;0.97;0.60;;;;;;;;;;6049261;23;20011;-81
2022/09/22 13:38:28;;;;;;;0.90;0.73;;;25.10;33.50;;;;;;6056507;23;20482;-74
2022/09/22 13:40:54;;;;;;;5.72;0.90;;;;;;;;;;6033065;23;20010;-75
2022/09/22 13:43:26;;;;;;;1.63;0.82;;;25.20;33.60;;;;;;6058188;23;20074;-78
2022/09/22 13:45:53;;;;;;;1.10;0.70;;;25.00;45.80;;;;;;6050109;23;20003;-79
2022/09/22 13:48:20;;;;;;;1.27;0.90;;;25.20;42.50;;;;;;6104295;23;20018;-79
2022/09/22 13:50:58;;;;;;;2.87;1.67;;;25.00;33.00;;;;;;6149151;23;20002;-79
2022/09/22 13:53:24;;;;;;;1.23;0.60;;;;;;;;;;6147917;23;20015;-78
2022/09/22 13:55:52;;;;;;;2.58;0.80;;;25.10;33.20;;;;;;6140480;23;20005;-73
2022/09/22 13:58:22;;;;;;;;;;;25.20;33.20;;;;;;6146140;23;20102;-74
2022/09/22 14:00:55;;;;;;;1.85;0.95;;;25.20;32.90;;;;;;6149020;23;19900;-74
2022/09/22 14:03:21;;;;;;;1.60;0.88;;;25.20;45.20;;;;;;6149215;23;20008;-81